Skip to main content

NOAA/GLERL Met Station at Muskegon, MI

Previous 3 Hours (2 minute increments)
See also Previous 5 Days (top of hour)
Jump down to Data
Switch to [English][Metric]
Zoom: Click and drag, Pan: shift-click and drag, Unzoom: double-click, Unzoom All






See also 1-day windrose plot


NOAA/GLERL Met Station at Muskegon, MI

Previous 3 Hours (2 minute increments)
See also Previous 5 Days (top of hour only)
Jump up to Graphs
Switch to [English][Metric]
                  Wind  Wind  Wind   Air   Dew   Rel     Sta   PAR
                   Spd   Gst   Dir  Temp    Pt   Hum    Pres uE/m2/
YYYY-MM-DD   EDT   m/s   m/s   deg     C     C     %      mb   sec
2020-07-07 13:20   2.8   2.9   237  25.6  22.9  84.6  993.80  1892
2020-07-07 13:18   2.7   2.8   234  25.6  22.8  84.2  993.80  1892
2020-07-07 13:16   2.7   2.8   235  25.7  22.9  84.1  993.80  1890
2020-07-07 13:14   2.7   2.8   233  25.8  22.8  83.1  993.80  1887
2020-07-07 13:12   2.8   2.9   231  26.1  22.9  82.3  993.80  1887
2020-07-07 13:10   2.8   2.9   227  26.8  23.1  79.8  993.80  1890
2020-07-07 13:08   2.7   2.9   224  27.5  23.3  77.7  993.80  1891
2020-07-07 13:06   2.8   3.0   221  27.8  23.4  76.7  993.80  1892
2020-07-07 13:04   2.8   3.0   220  27.7  23.3  76.6  993.80  1887
2020-07-07 13:02   2.7   2.9   222  27.7  23.2  76.3  993.80  1889
2020-07-07 13:00   2.7   2.8   221  27.7  23.2  76.0  993.80  1888
2020-07-07 12:58   2.7   2.8   218  27.6  23.3  76.9  993.90  1888
2020-07-07 12:56   2.8   2.9   219  27.6  23.3  77.2  994.00  1882
2020-07-07 12:54   2.7   2.9   218  27.5  23.5  78.3  994.00  1882
2020-07-07 12:52   2.8   3.1   220  27.1  23.6  80.7  994.00  1879
2020-07-07 12:50   2.9   3.1   225  26.7  23.6  82.9  994.00  1883
2020-07-07 12:48   2.9   3.1   226  26.2  23.4  84.3  994.00  1885
2020-07-07 12:46   3.1   3.4   230  26.0  23.3  84.7  994.00  1899
2020-07-07 12:44   3.3   3.7   231  25.9  23.2  84.8  994.00  1915
2020-07-07 12:42   3.3   3.7   231  26.0  23.3  84.7  994.00  1926
2020-07-07 12:40   3.4   3.7   230  26.3  23.4  83.6  994.00  1934
2020-07-07 12:38   3.4   3.6   229  26.8  23.5  81.9  994.00  1924
2020-07-07 12:36   3.4   3.6   224  27.0  23.6  81.3  994.00  1925
2020-07-07 12:34   3.6   4.1   221  27.0  23.7  81.9  994.00  1919
2020-07-07 12:32   3.5   3.7   216  26.9  23.7  82.5  994.00  1931
2020-07-07 12:30   3.7   4.1   213  27.0  23.7  81.8  994.00  1937
2020-07-07 12:28   3.9   4.2   208  26.9  23.6  81.7  994.00  1926
2020-07-07 12:26   4.2   4.4   203  26.6  23.6  83.1  994.00  1930
2020-07-07 12:24   4.4   4.7   199  26.5  23.6  83.9  994.00  1933
2020-07-07 12:22   4.4   4.8   197  26.4  23.6  84.4  994.00  1899
2020-07-07 12:20   4.3   4.7   201  26.3  23.4  83.8  994.00  1886
2020-07-07 12:18   4.4   4.8   196  26.6  23.5  82.8  994.00  1895
2020-07-07 12:16   3.8   4.1   198  26.6  23.6  83.1  994.00  1905
2020-07-07 12:14   3.6   3.9   207  26.6  23.5  82.6  994.00  1905
2020-07-07 12:12   3.5   3.8   211  26.6  23.5  83.0  994.00  1901
2020-07-07 12:10   3.4   3.6   210  26.5  23.5  83.4  994.00  1902
2020-07-07 12:08   3.2   3.5   210  26.4  23.5  83.8  993.80  1922
2020-07-07 12:06   3.2   3.4   213  26.5  23.5  83.3  993.90  1981
2020-07-07 12:04   3.2   3.4   214  26.4  23.5  83.9  994.00  2061
2020-07-07 12:02   3.2   3.4   214  26.4  23.5  83.8  994.00  1706
2020-07-07 12:00   3.4   3.5   214  26.5  23.5  83.3  994.00  1417
2020-07-07 11:58   3.5   3.8   211  26.5  23.5  83.2  993.90  1955
2020-07-07 11:56   3.8   4.1   207  26.5  23.5  83.1  993.80  1959
2020-07-07 11:54   3.9   4.4   203  26.4  23.3  83.0  993.80  1972
2020-07-07 11:52   4.1   4.4   199  26.4  23.4  83.3  993.80  1969
2020-07-07 11:50   4.1   4.5   198  26.2  23.3  83.8  993.90  2040
2020-07-07 11:48   4.3   4.7   197  26.1  23.3  84.2  993.90  2027
2020-07-07 11:46   4.3   4.7   193  25.9  23.2  84.8  993.80  1896
2020-07-07 11:44   4.5   4.8   193  25.8  23.0  84.4  993.80  1250
2020-07-07 11:42   4.4   4.7   194  25.8  23.0  84.4  993.80  1105
2020-07-07 11:40   4.4   4.8   195  25.8  23.1  84.7  993.80  1222
2020-07-07 11:38   4.1   4.5   194  25.9  23.1  84.1  993.80  1663
2020-07-07 11:36   4.0   4.5   196  26.0  23.1  84.0  993.80  1623
2020-07-07 11:34   4.0   4.5   194  26.0  23.1  83.6  993.80  1692
2020-07-07 11:32   3.8   4.4   197  26.0  23.1  84.0  993.80  1660
2020-07-07 11:30   3.8   4.4   195  25.9  23.1  84.2  993.80  1636
2020-07-07 11:28   4.3   4.7   198  25.9  23.0  83.7  993.80  1436
2020-07-07 11:26   4.7   5.0   198  26.0  23.0  83.2  994.00  1333
2020-07-07 11:24   4.5   4.9   197  26.2  23.1  82.5  994.00  1283
2020-07-07 11:22   4.2   4.8   195  26.2  23.0  82.4  993.90  1390
2020-07-07 11:20   4.7   5.2   194  26.0  23.0  83.2  993.80  2274
2020-07-07 11:18   4.9   5.4   196  25.7  22.8  83.6  993.80  2221
2020-07-07 11:16   5.2   6.0   193  25.8  22.8  83.0  993.80  1763
2020-07-07 11:14   5.4   5.9   192  25.9  22.7  82.2  993.80  1123
2020-07-07 11:12   5.4   6.0   193  26.1  22.6  80.9  993.80  1197
2020-07-07 11:10   5.4   6.0   193  26.4  22.7  79.7  993.80  1386
2020-07-07 11:08   5.1   6.1   191  26.3  22.6  79.7  993.80  2096
2020-07-07 11:06   5.2   5.9   191  26.4  22.5  79.0  993.80  2170
2020-07-07 11:04   4.7   5.5   193  26.3  22.6  79.9  993.80  2040
2020-07-07 11:02   3.9   5.0   190  26.0  22.6  81.0  993.80  1948
2020-07-07 11:00   4.0   4.9   189  25.9  22.2  79.9  993.80  1892
2020-07-07 10:58   4.5   5.1   185  26.0  22.2  79.3  993.80  1865
2020-07-07 10:56   4.5   5.2   187  25.9  22.2  79.6  993.80  1844
2020-07-07 10:54   4.3   5.1   192  25.9  22.2  79.7  993.80  1803
2020-07-07 10:52   4.2   5.1   191  25.9  22.2  79.6  993.80  1794
2020-07-07 10:50   5.1   5.9   192  25.9  22.1  79.0  993.80  1793
2020-07-07 10:48   5.5   6.2   194  25.8  22.1  79.7  993.80  1790
2020-07-07 10:46   5.7   6.1   195  25.8  22.0  79.4  993.80  1768
2020-07-07 10:44   5.6   6.3   192  25.7  22.0  79.7  993.80  1749
2020-07-07 10:42   5.3   6.0   191  25.6  21.9  79.7  993.80  1738
2020-07-07 10:40   5.6   6.5   191  25.7  21.9  79.4  993.80  1732
2020-07-07 10:38   5.4   6.2   190  25.6  22.0  80.2  993.80  1721
2020-07-07 10:36   4.8   6.1   193  25.6  22.3  81.7  993.80  1714
2020-07-07 10:34   4.5   5.0   195  25.8  22.2  80.4  993.80  1719
2020-07-07 10:32   4.6   5.0   197  25.8  22.2  80.4  993.80  1711
2020-07-07 10:30   4.7   5.1   196  25.8  22.1  79.8  993.80  1709
2020-07-07 10:28   4.6   4.9   196  25.7  22.0  79.9  993.70  1703
2020-07-07 10:26   4.5   4.8   195  25.7  22.1  80.3  993.70  1700
2020-07-07 10:24   4.5   5.0   195  25.7  22.0  79.8  993.80  1698
2020-07-07 10:22   4.5   4.9   197  25.6  22.0  80.3  993.80  1700
2020-07-07 10:20   4.4   4.6   200  25.5  22.2  81.4  993.80  1694